Station Historical Data
Daily Summary for February 25, 2012 Units:  Metric    English   Both
« Previous Day
Next Day »
Daily Weekly Monthly Yearly Custom
  High: Low: Average:
Temperature: 20.1 °C 4.3 °C 10.5 °C
Dew Point: 9.0 °C 1.5 °C 5.2 °C
Humidity: 89% 46% 72%
Wind Speed: 11.3km/h 0.0km/h 5km/h
Wind Gust: 17.7km/h - -
Wind- - West
Pressure: 1017.5 hPa 1009.0 hPa -
Precipitation: 0.0 mm    
Historical Graphs
 
 
Tabular Data for February 25, 2012
Time Temperature Dew Point Pressure Wind Wind Speed Wind Gust Humidity Rainfall Rate (Hourly)
00:00 6.3 °C 2.7 °C 1016.8 hPa NW 3.2 km/h 4.8 km/h 78% 0.0 mm
00:09 6.3 °C 2.7 °C 1017.2 hPa NW 3.2 km/h 3.2 km/h 78% 0.0 mm
00:20 5.9 °C 2.3 °C 1017.2 hPa NW 1.6 km/h 3.2 km/h 78% 0.0 mm
00:30 5.6 °C 2.1 °C 1017.2 hPa NNW 1.6 km/h 3.2 km/h 78% 0.0 mm
00:40 5.5 °C 2.2 °C 1017.2 hPa NE 1.6 km/h 3.2 km/h 79% 0.0 mm
00:50 5.1 °C 1.9 °C 1017.2 hPa Calm   1.6 km/h 80% 0.0 mm
01:00 4.8 °C 1.8 °C 1017.2 hPa Calm     81% 0.0 mm
01:09 4.6 °C 1.8 °C 1017.2 hPa Calm     82% 0.0 mm
01:20 4.4 °C 1.8 °C 1017.2 hPa Calm     83% 0.0 mm
01:30 4.3 °C 2.0 °C 1017.2 hPa Calm   3.2 km/h 85% 0.0 mm
01:39 4.3 °C 2.0 °C 1017.2 hPa WSW 1.6 km/h 3.2 km/h 85% 0.0 mm
01:50 4.3 °C 2.2 °C 1017.2 hPa SW 3.2 km/h 3.2 km/h 86% 0.0 mm
02:00 4.3 °C 2.2 °C 1017.2 hPa WSW 3.2 km/h 4.8 km/h 86% 0.0 mm
02:09 4.5 °C 2.5 °C 1016.8 hPa West 4.8 km/h 8.0 km/h 87% 0.0 mm
02:20 4.7 °C 2.4 °C 1016.8 hPa West 3.2 km/h 4.8 km/h 85% 0.0 mm
02:30 4.4 °C 1.9 °C 1016.8 hPa West 3.2 km/h 4.8 km/h 84% 0.0 mm
02:39 4.4 °C 2.1 °C 1016.8 hPa West 3.2 km/h 4.8 km/h 85% 0.0 mm
02:50 4.8 °C 2.3 °C 1016.8 hPa West 3.2 km/h 4.8 km/h 84% 0.0 mm
03:00 6.0 °C 3.2 °C 1016.8 hPa West 4.8 km/h 8.0 km/h 82% 0.0 mm
03:09 6.1 °C 3.1 °C 1016.1 hPa West 4.8 km/h 8.0 km/h 81% 0.0 mm
03:20 6.7 °C 3.1 °C 1016.1 hPa West 4.8 km/h 8.0 km/h 78% 0.0 mm
03:30 6.7 °C 2.9 °C 1015.8 hPa West 4.8 km/h 8.0 km/h 77% 0.0 mm
03:39 6.9 °C 2.9 °C 1015.8 hPa West 4.8 km/h 8.0 km/h 76% 0.0 mm
03:50 7.1 °C 2.9 °C 1015.8 hPa West 4.8 km/h 8.0 km/h 75% 0.0 mm
04:00 6.7 °C 2.6 °C 1015.8 hPa West 3.2 km/h 4.8 km/h 75% 0.0 mm
04:09 6.1 °C 2.4 °C 1015.8 hPa West 3.2 km/h 4.8 km/h 77% 0.0 mm
04:20 5.8 °C 2.3 °C 1015.8 hPa NNW 4.8 km/h 8.0 km/h 78% 0.0 mm
04:29 5.5 °C 2.5 °C 1015.8 hPa NNW 8.0 km/h 9.7 km/h 81% 0.0 mm
04:39 5.3 °C 2.3 °C 1015.8 hPa NNW 4.8 km/h 8.0 km/h 81% 0.0 mm
04:50 5.1 °C 2.1 °C 1015.8 hPa NW 3.2 km/h 6.4 km/h 81% 0.0 mm
05:00 4.8 °C 2.0 °C 1015.8 hPa NNW 3.2 km/h 4.8 km/h 82% 0.0 mm
05:09 4.5 °C 1.5 °C 1015.8 hPa NW 3.2 km/h 4.8 km/h 81% 0.0 mm
05:20 4.3 °C 1.5 °C 1015.8 hPa West 1.6 km/h 3.2 km/h 82% 0.0 mm
05:29 4.5 °C 1.9 °C 1015.5 hPa WNW 3.2 km/h 4.8 km/h 83% 0.0 mm
05:39 4.4 °C 1.8 °C 1015.5 hPa NW 4.8 km/h 8.0 km/h 83% 0.0 mm
05:50 4.4 °C 1.8 °C 1015.8 hPa NW 4.8 km/h 8.0 km/h 83% 0.0 mm
06:00 4.8 °C 2.2 °C 1015.8 hPa NW 8.0 km/h 9.7 km/h 83% 0.0 mm
06:10 4.8 °C 2.2 °C 1015.5 hPa NW 8.0 km/h 8.0 km/h 83% 0.0 mm
06:20 4.9 °C 2.1 °C 1015.5 hPa WNW 4.8 km/h 9.7 km/h 82% 0.0 mm
06:29 5.1 °C 2.3 °C 1015.5 hPa NW 4.8 km/h 8.0 km/h 82% 0.0 mm
06:39 5.1 °C 2.3 °C 1015.5 hPa NW 4.8 km/h 8.0 km/h 82% 0.0 mm
06:50 5.5 °C 2.7 °C 1015.5 hPa NW 8.0 km/h 9.7 km/h 82% 0.0 mm
07:00 5.3 °C 2.3 °C 1015.5 hPa NW 8.0 km/h 8.0 km/h 81% 0.0 mm
07:09 5.5 °C 2.7 °C 1015.5 hPa NW 8.0 km/h 9.7 km/h 82% 0.0 mm
07:20 5.6 °C 2.8 °C 1015.5 hPa WNW 8.0 km/h 8.0 km/h 82% 0.0 mm
07:30 5.7 °C 2.7 °C 1015.8 hPa NW 8.0 km/h 8.0 km/h 81% 0.0 mm
07:39 6.1 °C 3.3 °C 1015.8 hPa NW 4.8 km/h 8.0 km/h 82% 0.0 mm
07:50 6.5 °C 3.5 °C 1016.8 hPa NW 8.0 km/h 9.7 km/h 81% 0.0 mm
08:00 6.8 °C 3.8 °C 1016.8 hPa NW 8.0 km/h 8.0 km/h 81% 0.0 mm
08:09 7.7 °C 4.1 °C 1017.5 hPa NW 8.0 km/h 9.7 km/h 78% 0.0 mm
08:20 8.0 °C 4.2 °C 1017.5 hPa NW 8.0 km/h 8.0 km/h 77% 0.0 mm
08:30 8.7 °C 4.7 °C 1017.2 hPa NW 8.0 km/h 9.7 km/h 76% 0.0 mm
08:40 9.1 °C 4.9 °C 1017.2 hPa NW 8.0 km/h 9.7 km/h 75% 0.0 mm
08:50 9.6 °C 5.2 °C 1017.5 hPa NW 4.8 km/h 9.7 km/h 74% 0.0 mm
09:00 10.1 °C 5.7 °C 1017.5 hPa NW 4.8 km/h 9.7 km/h 74% 0.0 mm
09:10 10.8 °C 5.7 °C 1017.5 hPa Calm     71% 0.0 mm
09:20 11.3 °C 6.0 °C 1017.5 hPa NNW 8.0 km/h 9.7 km/h 70% 0.0 mm
09:40 12.1 °C 6.4 °C 1016.8 hPa NW 9.7 km/h 12.9 km/h 68% 0.0 mm
09:50 12.3 °C 6.1 °C 1016.5 hPa NW 9.7 km/h 12.9 km/h 66% 0.0 mm
10:00 12.7 °C 6.7 °C 1016.5 hPa NNW 9.7 km/h 12.9 km/h 67% 0.0 mm
10:10 13.1 °C 6.9 °C 1016.5 hPa NW 8.0 km/h 11.3 km/h 66% 0.0 mm
10:20 13.5 °C 7.1 °C 1016.5 hPa NW 8.0 km/h 11.3 km/h 65% 0.0 mm
10:30 13.9 °C 7.2 °C 1015.8 hPa NW 8.0 km/h 12.9 km/h 64% 0.0 mm
10:40 14.3 °C 7.6 °C 1015.8 hPa NNW 9.7 km/h 12.9 km/h 64% 0.0 mm
10:50 14.7 °C 7.9 °C 1015.8 hPa NW 8.0 km/h 9.7 km/h 64% 0.0 mm
11:00 15.1 °C 7.6 °C 1015.8 hPa NNW 8.0 km/h 14.5 km/h 61% 0.0 mm
11:10 15.2 °C 7.7 °C 1015.5 hPa NNW 11.3 km/h 17.7 km/h 61% 0.0 mm
11:20 15.6 °C 7.6 °C 1015.5 hPa NNW 9.7 km/h 14.5 km/h 59% 0.0 mm
11:30 15.8 °C 7.1 °C 1015.5 hPa NNW 11.3 km/h 14.5 km/h 56% 0.0 mm
11:40 16.0 °C 7.5 °C 1015.5 hPa NW 9.7 km/h 14.5 km/h 57% 0.0 mm
11:50 16.3 °C 7.2 °C 1015.1 hPa NNW 9.7 km/h 12.9 km/h 55% 0.0 mm
12:00 16.4 °C 7.1 °C 1015.1 hPa NNW 9.7 km/h 14.5 km/h 54% 0.0 mm
12:10 16.4 °C 7.6 °C 1014.8 hPa NNW 9.7 km/h 14.5 km/h 56% 0.0 mm
12:20 16.7 °C 7.1 °C 1014.8 hPa NW 9.7 km/h 11.3 km/h 53% 0.0 mm
12:30 16.8 °C 7.2 °C 1014.1 hPa NW 8.0 km/h 14.5 km/h 53% 0.0 mm
12:40 17.1 °C 7.2 °C 1014.1 hPa NW 9.7 km/h 14.5 km/h 52% 0.0 mm
12:50 17.2 °C 7.6 °C 1014.1 hPa WNW 9.7 km/h 14.5 km/h 53% 0.0 mm
13:00 17.3 °C 7.3 °C 1014.1 hPa NNW 9.7 km/h 12.9 km/h 52% 0.0 mm
13:10 17.5 °C 7.6 °C 1013.4 hPa NNW 8.0 km/h 14.5 km/h 52% 0.0 mm
13:20 17.5 °C 7.6 °C 1013.4 hPa NW 8.0 km/h 14.5 km/h 52% 0.0 mm
13:30 17.9 °C 7.6 °C 1013.1 hPa NW 8.0 km/h 12.9 km/h 51% 0.0 mm
13:40 18.1 °C 7.8 °C 1013.1 hPa WNW 4.8 km/h 8.0 km/h 51% 0.0 mm
13:50 18.3 °C 7.4 °C 1012.8 hPa NW 4.8 km/h 11.3 km/h 49% 0.0 mm
14:00 18.7 °C 8.1 °C 1012.8 hPa WNW 4.8 km/h 11.3 km/h 50% 0.0 mm
14:10 18.5 °C 7.6 °C 1012.4 hPa WNW 4.8 km/h 11.3 km/h 49% 0.0 mm
14:20 18.8 °C 8.2 °C 1012.4 hPa WNW 4.8 km/h 11.3 km/h 50% 0.0 mm
14:30 19.1 °C 7.8 °C 1012.4 hPa NW 3.2 km/h 8.0 km/h 48% 0.0 mm
14:40 19.1 °C 8.1 °C 1012.4 hPa NW 3.2 km/h 4.8 km/h 49% 0.0 mm
14:50 19.2 °C 7.9 °C 1012.1 hPa WNW 3.2 km/h 8.0 km/h 48% 0.0 mm
15:00 19.2 °C 8.2 °C 1012.1 hPa WNW 4.8 km/h 9.7 km/h 49% 0.0 mm
15:09 19.1 °C 7.8 °C 1011.7 hPa NW 4.8 km/h 9.7 km/h 48% 0.0 mm
15:20 19.4 °C 8.4 °C 1011.7 hPa WSW 3.2 km/h 8.0 km/h 49% 0.0 mm
15:30 19.7 °C 8.1 °C 1011.7 hPa NW 1.6 km/h 4.8 km/h 47% 0.0 mm
15:40 20.1 °C 8.1 °C 1011.7 hPa Calm   8.0 km/h 46% 0.0 mm
15:50 19.9 °C 8.9 °C 1011.4 hPa West 3.2 km/h 8.0 km/h 49% 0.0 mm
16:00 19.9 °C 8.2 °C 1011.4 hPa WNW 1.6 km/h 4.8 km/h 47% 0.0 mm
16:09 20.1 °C 8.1 °C 1011.1 hPa NNW 1.6 km/h 4.8 km/h 46% 0.0 mm
16:20 20.1 °C 8.4 °C 1011.1 hPa WSW 1.6 km/h 4.8 km/h 47% 0.0 mm
16:30 19.8 °C 8.2 °C 1010.7 hPa WSW 3.2 km/h 9.7 km/h 47% 0.0 mm
16:40 19.2 °C 7.9 °C 1010.7 hPa West 8.0 km/h 12.9 km/h 48% 0.0 mm
16:50 18.8 °C 8.4 °C 1010.7 hPa West 9.7 km/h 12.9 km/h 51% 0.0 mm
17:00 18.5 °C 8.2 °C 1010.7 hPa WNW 8.0 km/h 11.3 km/h 51% 0.0 mm
17:10 18.0 °C 8.0 °C 1011.1 hPa West 4.8 km/h 9.7 km/h 52% 0.0 mm
17:20 17.6 °C 8.2 °C 1011.1 hPa WSW 4.8 km/h 8.0 km/h 54% 0.0 mm
17:30 16.8 °C 9.0 °C 1011.1 hPa ESE 3.2 km/h 9.7 km/h 60% 0.0 mm
17:39 15.1 °C 8.3 °C 1011.1 hPa ESE 9.7 km/h 11.3 km/h 64% 0.0 mm
17:50 14.0 °C 7.9 °C 1010.7 hPa ESE 8.0 km/h 12.9 km/h 67% 0.0 mm
18:00 13.1 °C 7.6 °C 1010.7 hPa ESE 4.8 km/h 9.7 km/h 69% 0.0 mm
18:09 12.3 °C 7.2 °C 1009.7 hPa ESE 4.8 km/h 8.0 km/h 71% 0.0 mm
18:20 11.5 °C 7.0 °C 1009.7 hPa SE 4.8 km/h 8.0 km/h 74% 0.0 mm
18:29 11.0 °C 6.7 °C 1009.4 hPa SE 4.8 km/h 8.0 km/h 75% 0.0 mm
18:39 10.7 °C 6.7 °C 1009.4 hPa ESE 3.2 km/h 4.8 km/h 76% 0.0 mm
18:50 10.4 °C 6.6 °C 1009.4 hPa ESE 3.2 km/h 4.8 km/h 77% 0.0 mm
19:00 10.3 °C 6.6 °C 1009.4 hPa ESE 3.2 km/h 4.8 km/h 78% 0.0 mm
19:09 9.7 °C 6.2 °C 1009.4 hPa SE 4.8 km/h 6.4 km/h 79% 0.0 mm
19:20 9.2 °C 6.1 °C 1009.4 hPa SE 4.8 km/h 8.0 km/h 81% 0.0 mm
19:40 8.8 °C 5.9 °C 1009.0 hPa SE 4.8 km/h 8.0 km/h 82% 0.0 mm
19:50 8.7 °C 5.8 °C 1009.4 hPa SE 4.8 km/h 8.0 km/h 82% 0.0 mm
20:00 8.7 °C 6.0 °C 1009.4 hPa ESE 3.2 km/h 8.0 km/h 83% 0.0 mm
20:09 8.5 °C 5.6 °C 1009.4 hPa ESE 3.2 km/h 6.4 km/h 82% 0.0 mm
20:19 8.4 °C 5.7 °C 1009.4 hPa East 4.8 km/h 8.0 km/h 83% 0.0 mm
20:30 8.5 °C 5.9 °C 1009.4 hPa East 4.8 km/h 9.7 km/h 84% 0.0 mm
20:39 8.2 °C 5.7 °C 1009.4 hPa ESE 3.2 km/h 4.8 km/h 84% 0.0 mm
20:50 7.8 °C 5.1 °C 1009.4 hPa ESE 1.6 km/h 3.2 km/h 83% 0.0 mm
21:00 7.7 °C 5.0 °C 1009.4 hPa ESE 3.2 km/h 4.8 km/h 83% 0.0 mm
21:09 7.7 °C 5.2 °C 1009.4 hPa ESE 3.2 km/h 4.8 km/h 84% 0.0 mm
21:20 7.7 °C 5.2 °C 1009.4 hPa ESE 1.6 km/h 3.2 km/h 84% 0.0 mm
21:30 7.5 °C 5.2 °C 1009.4 hPa SE 3.2 km/h 4.8 km/h 85% 0.0 mm
21:39 7.2 °C 4.8 °C 1009.4 hPa SSE 3.2 km/h 3.2 km/h 85% 0.0 mm
21:50 7.1 °C 4.7 °C 1009.4 hPa SSE 3.2 km/h 3.2 km/h 85% 0.0 mm
22:00 7.1 °C 4.7 °C 1009.4 hPa SSE 1.6 km/h 3.2 km/h 85% 0.0 mm
22:09 7.1 °C 5.2 °C 1009.4 hPa SW 1.6 km/h 3.2 km/h 88% 0.0 mm
22:20 7.3 °C 5.6 °C 1009.4 hPa SW 1.6 km/h 3.2 km/h 89% 0.0 mm
22:29 7.1 °C 5.4 °C 1009.4 hPa WSW 3.2 km/h 4.8 km/h 89% 0.0 mm
22:39 6.8 °C 5.1 °C 1009.4 hPa SSW 1.6 km/h 4.8 km/h 89% 0.0 mm
22:50 6.8 °C 5.1 °C 1009.4 hPa SSW 3.2 km/h 4.8 km/h 89% 0.0 mm
23:00 6.9 °C 5.2 °C 1009.4 hPa SSW 3.2 km/h 4.8 km/h 89% 0.0 mm
23:09 6.7 °C 5.0 °C 1009.0 hPa Calm   1.6 km/h 89% 0.0 mm
23:20 6.6 °C 4.9 °C 1009.0 hPa WSW 3.2 km/h 4.8 km/h 89% 0.0 mm
23:29 6.5 °C 4.8 °C 1009.0 hPa SW 3.2 km/h 6.4 km/h 89% 0.0 mm
23:39 6.5 °C 4.8 °C 1009.0 hPa WSW 3.2 km/h 6.4 km/h 89% 0.0 mm
23:50 6.4 °C 4.7 °C 1009.0 hPa SW 3.2 km/h 4.8 km/h 89% 0.0 mm
Juneau County Weather
Compliments of Weather Underground